Time;durP1;ratioP1;P1;durP2;ratioP2;P2;SDS_P1;SDS_P2;PMS_P1;PMS_P2;Temp;Humidity;BMP_temperature;BMP_pressure;BME280_temperature;BME280_humidity;BME280_pressure;Samples;Min_cycle;Max_cycle;Signal;HPM_P1;HPM_P2
2021/03/28 00:01:54;;;;;;;8.35;5.10;;;;;;;10.77;70.17;102470.81;5070474;28;20037;-66
2021/03/28 00:04:24;;;;;;;8.95;5.47;;;;;;;10.84;69.97;102479.91;5056221;28;20032;-66
2021/03/28 00:07:10;;;;;;;6.90;4.55;;;;;;;10.89;70.18;102474.84;5066655;28;20041;-66
2021/03/28 00:09:46;;;;;;;9.55;5.65;;;;;;;10.87;70.44;102472.13;5058864;28;20124;-65
2021/03/28 00:12:24;;;;;;;7.55;5.13;;;;;;;10.87;70.35;102471.22;5052182;28;20052;-65
2021/03/28 00:14:54;;;;;;;7.63;4.63;;;;;;;10.88;70.57;102473.94;5053050;28;20037;-65
2021/03/28 00:17:30;;;;;;;7.40;4.65;;;;;;;10.94;70.51;102473.28;5064867;28;20028;-65
2021/03/28 00:20:01;;;;;;;7.75;4.80;;;;;;;10.96;70.00;102472.50;5066071;28;20494;-65
2021/03/28 00:22:33;;;;;;;9.43;4.57;;;;;;;10.98;70.25;102472.56;5053807;28;20040;-65
2021/03/28 00:25:09;;;;;;;9.10;5.03;;;;;;;10.94;70.44;102473.28;5052264;28;20387;-65
2021/03/28 00:27:44;;;;;;;8.55;4.80;;;;;;;10.85;70.46;102462.31;5052697;28;20132;-66
2021/03/28 00:30:23;;;;;;;;;;;;;;;10.76;70.65;102461.09;5053456;28;20047;-65
2021/03/28 00:32:54;;;;;;;6.25;4.05;;;;;;;10.69;70.70;102466.97;5051720;28;20050;-65
2021/03/28 00:35:25;;;;;;;7.32;4.20;;;;;;;10.69;70.81;102460.78;5051107;28;20056;-65
2021/03/28 00:38:07;;;;;;;7.30;4.72;;;;;;;10.74;70.69;102464.53;5053899;28;20520;-66
2021/03/28 00:40:34;;;;;;;7.78;4.90;;;;;;;10.75;70.50;102469.88;5071087;28;20056;-66
2021/03/28 00:43:13;;;;;;;8.23;5.03;;;;;;;10.75;70.49;102467.25;5061072;28;20044;-65
2021/03/28 00:45:53;;;;;;;7.18;4.80;;;;;;;10.73;70.69;102468.91;5066441;28;20520;-66
2021/03/28 00:48:22;;;;;;;8.95;4.90;;;;;;;10.69;70.76;102469.63;5071524;28;20045;-66
2021/03/28 00:50:53;;;;;;;8.00;4.88;;;;;;;10.66;70.87;102469.47;5084284;28;20040;-66
2021/03/28 00:53:39;;;;;;;7.20;4.57;;;;;;;10.63;70.84;102465.81;5081603;28;20144;-66
2021/03/28 00:56:11;;;;;;;7.82;4.85;;;;;;;10.56;70.71;102474.31;5071199;28;20049;-66
2021/03/28 00:58:57;;;;;;;7.15;4.28;;;;;;;10.54;70.81;102468.06;5074866;28;20048;-66
2021/03/28 01:01:30;;;;;;;7.85;4.47;;;;;;;10.48;70.84;102463.41;5087884;28;20047;-66
2021/03/28 01:04:27;;;;;;;8.20;4.72;;;;;;;10.44;70.89;102469.38;5090649;28;20049;-65
2021/03/28 01:06:58;;;;;;;8.05;4.53;;;;;;;10.41;70.80;102468.34;5090980;28;20055;-66
2021/03/28 01:10:06;;;;;;;8.60;5.18;;;;;;;10.36;71.12;102466.44;5064534;28;20032;-66
2021/03/28 01:13:11;;;;;;;8.13;4.68;;;;;;;10.25;71.21;102465.03;5046443;28;20033;-66
2021/03/28 01:16:20;;;;;;;7.78;4.90;;;;;;;10.17;71.23;102465.56;5051226;28;20029;-65
2021/03/28 01:19:03;;;;;;;8.57;4.78;;;;;;;10.12;71.10;102465.28;5070423;28;20048;-65
2021/03/28 01:21:42;;;;;;;8.43;4.93;;;;;;;10.12;70.93;102460.00;5070195;28;20052;-65
2021/03/28 01:24:23;;;;;;;7.35;4.53;;;;;;;10.14;70.94;102468.00;5085468;28;20725;-65
2021/03/28 01:27:13;;;;;;;7.80;4.97;;;;;;;10.13;70.90;102464.47;5088718;28;20036;-65
2021/03/28 01:29:44;;;;;;;8.35;4.40;;;;;;;10.10;71.18;102466.97;5090358;28;20048;-65
2021/03/28 01:32:24;;;;;;;9.25;5.07;;;;;;;10.05;71.19;102465.84;5084600;28;20127;-65
2021/03/28 01:34:56;;;;;;;7.72;5.07;;;;;;;10.03;71.43;102461.34;5068969;28;20090;-65
2021/03/28 01:37:28;;;;;;;9.05;4.93;;;;;;;10.02;71.40;102462.19;5071357;28;20033;-66
2021/03/28 01:40:05;;;;;;;9.88;4.47;;;;;;;10.01;71.48;102458.63;5080054;28;20044;-65
2021/03/28 01:42:58;;;;;;;8.88;5.05;;;;;;;9.97;71.60;102467.25;5070024;28;20207;-66
2021/03/28 01:45:44;;;;;;;10.48;4.80;;;;;;;9.94;71.36;102464.47;5080604;28;20055;-66
2021/03/28 01:48:36;;;;;;;7.55;4.68;;;;;;;9.91;71.55;102466.97;5088682;28;20040;-66
2021/03/28 01:51:32;;;;;;;8.90;4.45;;;;;;;9.85;71.45;102466.69;5079548;28;20432;-65
2021/03/28 01:54:06;;;;;;;8.52;4.63;;;;;;;9.81;71.55;102464.75;5069871;28;20048;-65
2021/03/28 01:56:43;;;;;;;8.00;4.38;;;;;;;9.82;71.74;102461.28;5071181;28;20123;-66
2021/03/28 01:59:23;;;;;;;7.32;4.18;;;;;;;9.83;71.43;102461.34;5071217;28;20061;-65
2021/03/28 02:01:55;;;;;;;8.15;4.75;;;;;;;9.83;71.33;102465.72;5069850;28;20059;-65
2021/03/28 02:04:34;;;;;;;8.18;4.78;;;;;;;9.86;71.73;102461.47;5073777;28;20040;-66
2021/03/28 02:07:30;;;;;;;8.73;4.50;;;;;;;9.87;71.51;102459.75;5071700;28;20569;-65
2021/03/28 02:10:14;;;;;;;9.25;4.40;;;;;;;9.80;71.63;102468.22;5054776;28;20056;-66
2021/03/28 02:12:47;;;;;;;7.32;4.43;;;;;;;9.75;71.58;102467.09;5069686;28;20123;-66
2021/03/28 02:15:42;;;;;;;7.53;4.45;;;;;;;9.75;72.04;102480.28;5086399;28;20119;-65
2021/03/28 02:18:19;;;;;;;;;;;;;;;9.73;71.63;102479.31;5072411;28;20304;-65
2021/03/28 02:20:54;;;;;;;8.43;4.40;;;;;;;9.65;71.81;102478.06;5079385;28;19920;-66
2021/03/28 02:23:38;;;;;;;9.18;5.40;;;;;;;9.65;72.04;102476.31;5087422;28;20122;-65
2021/03/28 02:26:19;;;;;;;7.75;4.43;;;;;;;9.72;72.13;102481.03;5089515;28;20515;-65
2021/03/28 02:28:58;;;;;;;7.88;4.88;;;;;;;9.81;72.05;102475.28;5085180;28;20409;-65
2021/03/28 02:31:35;;;;;;;7.68;4.68;;;;;;;9.86;72.00;102473.75;5069526;28;20044;-65
2021/03/28 02:34:18;;;;;;;8.43;4.47;;;;;;;9.90;72.10;102473.09;5071309;28;20049;-66
2021/03/28 02:37:06;;;;;;;7.10;3.92;;;;;;;9.90;72.01;102476.63;5069502;28;20094;-66
2021/03/28 02:39:44;;;;;;;9.18;4.78;;;;;;;9.88;71.90;102474.75;5075632;28;20565;-65
2021/03/28 02:42:17;;;;;;;6.80;4.13;;;;;;;9.90;72.22;102478.38;5081027;28;20037;-66
2021/03/28 02:45:07;;;;;;;8.73;4.35;;;;;;;9.88;72.18;102478.28;5070759;28;20040;-65
2021/03/28 02:48:17;;;;;;;7.57;4.68;;;;;;;9.83;72.09;102481.56;5069162;28;20037;-66
2021/03/28 02:51:05;;;;;;;6.97;4.20;;;;;;;9.78;72.43;102480.44;5076470;28;20048;-66
2021/03/28 02:53:47;;;;;;;8.90;4.32;;;;;;;9.73;72.57;102484.56;5089131;28;20553;-66
2021/03/28 02:56:53;;;;;;;7.60;4.55;;;;;;;9.78;72.36;102485.72;5084666;28;20032;-65
2021/03/28 02:59:32;;;;;;;10.32;4.93;;;;;;;9.74;72.29;102483.75;5077100;28;20040;-65
2021/03/28 03:02:13;;;;;;;7.38;4.40;;;;;;;9.70;72.27;102479.19;5086841;28;20080;-65
2021/03/28 03:05:14;;;;;;;7.95;4.63;;;;;;;9.69;72.19;102480.91;5070144;28;20063;-66
2021/03/28 03:08:00;;;;;;;7.63;4.45;;;;;;;9.75;72.22;102490.84;5067621;28;20052;-66
2021/03/28 03:10:48;;;;;;;6.47;4.32;;;;;;;9.81;72.13;102494.66;5079552;28;20501;-65
2021/03/28 03:13:22;;;;;;;9.88;4.90;;;;;;;9.80;72.11;102503.41;5070495;28;20082;-65
2021/03/28 03:15:53;;;;;;;8.32;4.43;;;;;;;9.77;72.21;102505.91;5070166;28;20041;-65
2021/03/28 03:18:54;;;;;;;7.30;4.18;;;;;;;9.74;72.49;102505.75;5078191;28;20136;-66
2021/03/28 03:21:55;;;;;;;9.30;4.70;;;;;;;9.69;72.72;102503.72;5085753;28;20032;-66
2021/03/28 03:24:40;;;;;;;7.68;4.28;;;;;;;9.64;72.43;102510.53;5087488;28;20036;-66
2021/03/28 03:27:47;;;;;;;7.60;4.30;;;;;;;9.63;72.61;102504.34;5081530;28;20037;-66
2021/03/28 03:30:53;;;;;;;8.07;4.60;;;;;;;9.67;72.39;102513.28;5072535;28;20067;-65
2021/03/28 03:33:43;;;;;;;8.63;5.47;;;;;;;9.68;72.67;102516.00;5032768;28;20430;-65
2021/03/28 03:36:38;;;;;;;7.53;4.47;;;;;;;9.69;72.56;102520.47;5092031;28;20040;-65
2021/03/28 03:39:26;;;;;;;7.78;3.90;;;;;;;9.64;72.55;102518.44;5092779;28;20104;-65
2021/03/28 03:42:22;;;;;;;7.70;4.40;;;;;;;9.59;72.95;102516.47;5091592;28;20399;-66
2021/03/28 03:45:19;;;;;;;6.60;3.90;;;;;;;9.56;72.64;102511.06;5058249;28;20051;-66
2021/03/28 03:47:59;;;;;;;6.53;4.10;;;;;;;9.57;72.81;102511.97;5080420;28;20071;-66
2021/03/28 03:50:51;;;;;;;7.38;4.10;;;;;;;9.58;72.86;102514.66;5089638;28;20127;-66
2021/03/28 03:53:27;;;;;;;8.13;4.60;;;;;;;9.66;72.60;102509.75;5077815;28;20115;-66
2021/03/28 03:56:07;;;;;;;7.72;4.53;;;;;;;9.76;72.85;102517.28;5072442;28;20131;-65
2021/03/28 03:58:37;;;;;;;8.40;4.72;;;;;;;9.78;72.76;102512.97;5080601;28;20043;-66
2021/03/28 04:01:24;;;;;;;8.40;4.95;;;;;;;9.81;73.19;102504.31;5083150;28;20048;-65
2021/03/28 04:04:46;;;;;;;7.32;4.85;;;;;;;9.82;73.25;102514.03;5072463;28;20106;-66
2021/03/28 04:07:37;;;;;;;9.13;5.07;;;;;;;9.78;72.95;102510.31;5073611;28;20039;-65
2021/03/28 04:10:18;;;;;;;12.65;9.15;;;;;;;9.64;73.01;102513.16;5083507;28;20648;-66
2021/03/28 04:13:03;;;;;;;8.45;4.85;;;;;;;9.59;73.33;102512.94;5077484;28;20111;-66
2021/03/28 04:15:45;;;;;;;6.85;4.05;;;;;;;9.58;73.14;102519.06;5071495;28;20049;-66
2021/03/28 04:18:29;;;;;;;7.07;4.20;;;;;;;9.56;73.32;102518.97;5071925;28;20068;-65
2021/03/28 04:21:06;;;;;;;7.75;3.80;;;;;;;9.55;73.13;102518.91;5075573;28;20131;-66
2021/03/28 04:23:46;;;;;;;6.65;3.97;;;;;;;9.55;72.83;102513.63;5071390;28;20043;-66
2021/03/28 04:26:31;;;;;;;7.28;4.28;;;;;;;9.44;72.94;102517.50;5085658;28;20514;-65
2021/03/28 04:29:04;;;;;;;8.55;4.90;;;;;;;9.41;73.05;102520.88;5080582;28;20080;-65
2021/03/28 04:32:15;;;;;;;8.13;4.80;;;;;;;9.44;72.98;102528.94;5073637;28;20123;-66
2021/03/28 04:35:05;;;;;;;7.75;4.28;;;;;;;9.42;72.85;102533.22;5020077;28;20046;-65
2021/03/28 04:37:43;;;;;;;7.22;4.05;;;;;;;9.47;72.79;102534.34;5071801;28;20044;-66
2021/03/28 04:40:56;;;;;;;8.73;4.63;;;;;;;9.59;72.70;102545.47;5071660;28;20029;-65
2021/03/28 04:44:03;;;;;;;10.68;4.53;;;;;;;9.70;72.53;102538.09;5076005;28;20046;-66
2021/03/28 04:47:13;;;;;;;7.28;3.97;;;;;;;9.77;72.63;102539.28;5087698;28;20131;-66
2021/03/28 04:50:04;;;;;;;6.88;3.88;;;;;;;9.77;72.52;102541.94;5089366;28;20052;-66
2021/03/28 04:53:08;;;;;;;7.88;4.07;;;;;;;9.80;72.32;102545.59;5054119;28;20396;-66
2021/03/28 04:56:10;;;;;;;6.15;3.78;;;;;;;9.82;72.48;102543.94;5072788;28;20029;-66
2021/03/28 04:59:06;;;;;;;7.70;3.80;;;;;;;9.88;72.75;102548.59;5070657;28;20162;-66
2021/03/28 05:01:47;;;;;;;6.68;4.22;;;;;;;9.93;72.57;102547.97;5091133;28;20119;-66
2021/03/28 05:04:37;;;;;;;8.45;4.47;;;;;;;9.97;72.74;102549.03;5091126;28;20028;-65
2021/03/28 05:07:31;;;;;;;8.10;4.95;;;;;;;9.99;72.55;102553.53;5091174;28;20048;-65
2021/03/28 05:10:29;;;;;;;6.65;4.10;;;;;;;10.07;72.93;102551.25;5090676;28;20515;-65
2021/03/28 05:13:28;;;;;;;9.25;4.30;;;;;;;10.27;72.78;102555.75;5086290;28;20123;-66
2021/03/28 05:16:40;;;;;;;6.55;3.60;;;;;;;10.40;72.66;102562.50;5072769;28;20057;-66
2021/03/28 05:19:32;;;;;;;6.32;3.90;;;;;;;10.43;72.50;102562.66;5090802;28;20044;-66
2021/03/28 05:22:35;;;;;;;6.65;3.70;;;;;;;10.54;72.74;102576.31;5090553;28;20061;-67
2021/03/28 05:25:43;;;;;;;7.00;4.10;;;;;;;10.70;72.68;102570.88;5087798;28;20037;-66
2021/03/28 05:28:49;;;;;;;5.97;3.83;;;;;;;10.83;72.58;102581.13;4991456;28;20649;-66
2021/03/28 05:31:49;;;;;;;8.20;3.83;;;;;;;10.92;72.59;102584.19;4999013;28;20053;-67
2021/03/28 05:34:49;;;;;;;6.28;3.97;;;;;;;11.05;72.57;102589.16;5069640;28;20035;-66
2021/03/28 05:37:47;;;;;;;6.72;4.07;;;;;;;11.16;72.17;102586.97;5090198;28;20522;-66
2021/03/28 05:40:50;;;;;;;8.75;4.60;;;;;;;11.25;72.34;102591.75;5085240;28;20043;-67
2021/03/28 05:44:10;;;;;;;9.07;4.82;;;;;;;11.33;72.35;102593.00;5090506;28;20051;-66
2021/03/28 05:46:51;;;;;;;11.73;5.75;;;;;;;11.43;72.28;102587.22;5068550;28;20043;-66
2021/03/28 05:49:42;;;;;;;12.23;7.28;;;;;;;11.57;72.15;102594.00;5071537;28;20540;-67
2021/03/28 05:52:45;;;;;;;13.07;6.30;;;;;;;11.70;71.95;102593.66;5076288;28;20051;-66
2021/03/28 05:55:32;;;;;;;11.63;6.68;;;;;;;11.72;72.17;102597.28;5038892;28;20544;-66
2021/03/28 05:58:32;;;;;;;14.57;6.90;;;;;;;11.80;72.30;102600.25;5089299;28;20044;-66
2021/03/28 06:01:23;;;;;;;14.07;7.30;;;;;;;11.89;72.16;102598.88;5072066;28;20040;-66
2021/03/28 06:04:37;;;;;;;16.25;9.88;;;;;;;12.02;72.14;102600.25;5081853;28;20520;-66
2021/03/28 06:07:53;;;;;;;17.35;9.40;;;;;;;12.10;72.33;102597.91;5089872;28;20550;-66
2021/03/28 06:11:01;;;;;;;20.95;12.77;;;;;;;12.20;72.11;102608.03;5087461;28;20520;-66
2021/03/28 06:13:51;;;;;;;23.70;13.88;;;;;;;12.24;72.15;102599.34;5040188;28;20040;-67
2021/03/28 06:16:41;;;;;;;43.95;25.58;;;;;;;12.29;72.00;102603.97;5082772;28;20044;-67
2021/03/28 06:19:55;;;;;;;40.72;21.33;;;;;;;12.43;71.46;102596.53;5070830;28;20032;-66
2021/03/28 06:22:55;;;;;;;27.10;15.68;;;;;;;12.60;70.40;102603.38;5083525;28;20426;-66
2021/03/28 06:25:58;;;;;;;22.35;14.30;;;;;;;12.81;69.98;102607.66;5087536;28;20046;-66
2021/03/28 06:29:06;;;;;;;25.05;15.43;;;;;;;12.85;69.94;102606.94;5081983;28;20055;-67
2021/03/28 06:32:06;;;;;;;32.28;19.10;;;;;;;12.95;69.95;102611.69;5038060;28;20484;-66
2021/03/28 06:35:11;;;;;;;67.03;31.77;;;;;;;13.07;69.56;102615.69;5057827;28;20052;-66
2021/03/28 06:37:55;;;;;;;;;;;;;;;13.12;69.46;102622.09;5060551;28;20431;-66
2021/03/28 06:40:43;;;;;;;38.08;20.23;;;;;;;13.28;68.97;102626.19;5089270;28;19927;-67
2021/03/28 06:43:31;;;;;;;33.95;16.98;;;;;;;13.39;68.98;102614.16;5084257;28;20041;-66
2021/03/28 06:46:14;;;;;;;20.65;11.00;;;;;;;13.54;68.30;102619.09;5072987;28;20448;-66
2021/03/28 06:49:21;;;;;;;19.08;10.13;;;;;;;13.67;68.02;102623.97;5077596;28;20051;-66
2021/03/28 06:52:11;;;;;;;13.90;8.50;;;;;;;13.77;67.71;102622.53;5071962;28;20435;-66
2021/03/28 06:55:15;;;;;;;14.73;7.82;;;;;;;13.97;67.34;102621.41;5077046;28;20038;-66
2021/03/28 06:58:27;;;;;;;15.82;7.40;;;;;;;14.15;66.66;102619.31;5087715;28;20408;-67
2021/03/28 07:01:28;;;;;;;11.45;8.45;;;;;;;14.36;66.13;102605.78;5089418;28;20058;-67
2021/03/28 07:04:35;;;;;;;13.80;6.72;;;;;;;14.56;65.43;102609.06;5091399;28;20147;-67
2021/03/28 07:07:13;;;;;;;9.38;5.20;;;;;;;15.18;64.34;102612.53;5075193;28;20409;-67
2021/03/28 07:10:00;;;;;;;8.57;5.57;;;;;;;15.06;63.55;102623.75;5090084;28;20070;-67
2021/03/28 07:12:42;;;;;;;10.38;5.68;;;;;;;14.84;63.95;102619.59;5077808;28;20093;-66
2021/03/28 07:15:36;;;;;;;10.50;5.20;;;;;;;14.74;63.66;102621.13;5080407;28;20047;-65
2021/03/28 07:19:02;;;;;;;13.10;6.68;;;;;;;15.10;63.52;102620.31;5087547;28;20036;-65
2021/03/28 07:21:45;;;;;;;15.23;7.80;;;;;;;15.64;62.40;102622.63;5043276;28;20045;-66
2021/03/28 07:24:53;;;;;;;9.68;5.43;;;;;;;15.85;61.00;102625.84;5087856;28;20036;-66
2021/03/28 07:27:56;;;;;;;9.13;4.90;;;;;;;15.94;60.91;102626.97;5072289;28;20043;-66
2021/03/28 07:30:58;;;;;;;11.32;7.07;;;;;;;15.85;61.10;102637.38;5078705;28;20547;-66
2021/03/28 07:34:03;;;;;;;6.78;4.40;;;;;;;16.05;59.89;102631.63;5072581;28;20075;-66
2021/03/28 07:37:19;;;;;;;8.95;5.55;;;;;;;16.76;58.72;102640.31;5048504;28;20062;-69
2021/03/28 07:40:09;;;;;;;;;;;;;;;16.55;58.28;102628.31;5026400;28;20081;-68
2021/03/28 07:43:01;;;;;;;9.45;3.60;;;;;;;16.33;58.27;102640.28;5001919;28;19921;-68
2021/03/28 07:45:53;;;;;;;11.60;7.95;;;;;;;16.57;58.08;102637.25;5041420;28;20051;-66
2021/03/28 07:49:00;;;;;;;12.90;6.63;;;;;;;16.64;57.17;102641.88;5105020;28;20091;-66
2021/03/28 07:52:00;;;;;;;15.75;9.35;;;;;;;16.58;57.50;102633.72;5081963;28;20036;-66
2021/03/28 07:55:09;;;;;;;8.30;4.38;;;;;;;16.54;56.66;102633.63;5092400;28;20074;-66
2021/03/28 07:58:08;;;;;;;8.82;6.05;;;;;;;16.48;56.66;102631.72;5090501;28;20033;-65
2021/03/28 08:00:56;;;;;;;6.30;3.58;;;;;;;16.73;56.14;102636.75;5084201;28;20032;-66
2021/03/28 08:03:51;;;;;;;9.20;4.05;;;;;;;16.52;55.75;102632.69;5092992;28;20039;-66
2021/03/28 08:06:36;;;;;;;9.20;5.15;;;;;;;16.27;55.26;102637.50;5071709;28;20032;-67
2021/03/28 08:09:34;;;;;;;10.07;6.18;;;;;;;16.13;53.94;102636.28;5072298;28;20409;-66
2021/03/28 08:12:18;;;;;;;9.73;5.35;;;;;;;16.00;53.35;102631.53;5075112;28;20445;-65
2021/03/28 08:15:12;;;;;;;9.52;5.10;;;;;;;16.28;52.23;102633.03;5088484;28;20039;-66
2021/03/28 08:17:48;;;;;;;8.68;5.70;;;;;;;16.39;52.88;102638.63;5071872;28;20123;-66
2021/03/28 08:20:37;;;;;;;6.75;3.60;;;;;;;16.33;53.23;102639.41;5085425;28;20036;-65
2021/03/28 08:23:41;;;;;;;8.48;4.13;;;;;;;16.15;54.07;102626.53;5076534;28;20082;-65
2021/03/28 08:26:42;;;;;;;14.35;6.95;;;;;;;15.89;54.53;102619.69;5071570;28;20051;-65
2021/03/28 08:29:39;;;;;;;11.65;6.00;;;;;;;15.64;53.58;102626.19;5058287;28;20082;-65
2021/03/28 08:32:25;;;;;;;8.63;5.85;;;;;;;16.36;51.95;102631.44;5071627;28;20063;-66
2021/03/28 08:35:10;;;;;;;8.45;5.22;;;;;;;17.03;51.16;102627.53;5092387;28;20043;-66
2021/03/28 08:37:54;;;;;;;7.38;4.03;;;;;;;17.60;50.20;102627.66;5094592;28;20389;-66
2021/03/28 08:40:42;;;;;;;4.57;2.97;;;;;;;18.06;48.54;102629.31;5111399;28;20032;-66
2021/03/28 08:43:48;;;;;;;9.52;4.53;;;;;;;18.39;46.72;102628.91;5076567;28;20429;-66
2021/03/28 08:46:43;;;;;;;5.00;2.97;;;;;;;18.44;45.95;102626.31;5080252;28;20032;-66
2021/03/28 08:49:16;;;;;;;;;;;;;;;18.59;46.02;102639.91;5069218;28;20134;-66
2021/03/28 08:52:31;;;;;;;5.30;3.55;;;;;;;18.67;46.99;102631.09;5088753;28;19927;-66
2021/03/28 08:55:06;;;;;;;4.40;2.80;;;;;;;18.91;46.13;102627.78;5008746;28;20038;-67
2021/03/28 08:57:39;;;;;;;6.22;3.95;;;;;;;18.78;46.39;102633.88;5087017;28;20029;-66
2021/03/28 09:00:35;;;;;;;7.65;4.35;;;;;;;19.15;45.86;102628.97;5081284;28;20531;-66
2021/03/28 09:03:47;;;;;;;8.60;5.10;;;;;;;19.59;45.08;102630.31;5077545;28;20041;-66
2021/03/28 09:06:21;;;;;;;4.80;2.95;;;;;;;19.70;44.38;102628.59;5082532;28;20039;-66
2021/03/28 09:09:01;;;;;;;6.93;3.80;;;;;;;19.84;44.26;102628.72;5078130;28;20044;-66
2021/03/28 09:11:55;;;;;;;7.70;2.88;;;;;;;19.18;43.51;102639.69;5096508;28;20111;-65
2021/03/28 09:14:33;;;;;;;;;;;;;;;18.71;44.47;102624.88;5086823;28;20033;-66
2021/03/28 09:17:06;;;;;;;14.60;9.43;;;;;;;18.69;44.01;102629.34;5069727;28;19962;-66
2021/03/28 09:20:15;;;;;;;207.63;109.57;;;;;;;19.02;42.76;102634.19;5070517;28;20115;-66
2021/03/28 09:22:50;;;;;;;436.50;237.55;;;;;;;19.21;42.97;102629.91;5006198;28;20497;-66
2021/03/28 09:25:26;;;;;;;45.88;24.65;;;;;;;19.59;42.77;102638.34;5062164;28;20497;-66
2021/03/28 09:28:02;;;;;;;295.00;138.48;;;;;;;20.12;42.18;102635.16;5072931;28;20032;-66
2021/03/28 09:30:38;;;;;;;144.35;75.72;;;;;;;20.45;41.54;102623.75;5080823;28;20040;-66
2021/03/28 09:33:30;;;;;;;116.38;67.78;;;;;;;20.74;40.84;102632.84;5070985;28;20044;-66
2021/03/28 09:36:26;;;;;;;79.88;52.55;;;;;;;20.84;40.63;102636.44;5074575;28;20058;-68
2021/03/28 09:39:18;;;;;;;36.50;23.80;;;;;;;20.64;40.35;102634.59;5087708;28;20090;-68
2021/03/28 09:42:13;;;;;;;477.90;273.85;;;;;;;20.03;41.56;102637.78;5073284;28;20067;-68
2021/03/28 09:45:09;;;;;;;196.80;112.50;;;;;;;20.06;40.87;102627.97;5068868;28;20058;-68
2021/03/28 09:47:41;;;;;;;47.78;36.65;;;;;;;20.17;41.01;102630.72;5101319;28;20034;-69
2021/03/28 09:50:22;;;;;;;71.97;43.30;;;;;;;20.30;40.79;102625.44;5075827;28;20036;-68
2021/03/28 09:53:15;;;;;;;36.10;22.27;;;;;;;19.94;40.98;102625.22;5096462;28;20040;-68
2021/03/28 09:55:58;;;;;;;100.15;50.25;;;;;;;20.39;40.75;102613.91;5075386;28;20047;-68
2021/03/28 09:59:05;;;;;;;24.13;12.93;;;;;;;20.66;40.30;102622.06;5083364;28;20043;-68
2021/03/28 10:01:54;;;;;;;14.70;8.68;;;;;;;20.82;40.64;102619.41;5024396;28;20042;-68
2021/03/28 10:04:58;;;;;;;15.18;9.38;;;;;;;21.04;40.32;102616.81;5065349;28;20028;-66
2021/03/28 10:07:30;;;;;;;22.73;14.10;;;;;;;20.71;40.09;102616.72;5069426;28;20036;-66
2021/03/28 10:10:07;;;;;;;54.08;25.25;;;;;;;20.45;40.14;102619.28;5070312;28;20040;-66
2021/03/28 10:12:48;;;;;;;35.72;17.00;;;;;;;20.49;40.02;102626.44;5087727;28;20044;-66
2021/03/28 10:15:18;;;;;;;13.38;5.40;;;;;;;20.73;40.30;102628.34;5106967;28;20123;-65
2021/03/28 10:17:51;;;;;;;14.38;6.90;;;;;;;20.74;39.72;102626.56;5101042;28;20397;-66
2021/03/28 10:20:31;;;;;;;18.15;8.50;;;;;;;20.43;40.44;102614.78;5085534;28;20032;-66
2021/03/28 10:23:08;;;;;;;22.88;12.77;;;;;;;20.80;40.46;102621.22;5088645;28;20040;-66
2021/03/28 10:25:47;;;;;;;6.07;3.92;;;;;;;21.07;40.02;102613.22;5089362;28;20083;-66
2021/03/28 10:28:47;;;;;;;33.05;24.02;;;;;;;20.81;39.43;102617.63;5100171;28;20039;-66
2021/03/28 10:31:25;;;;;;;15.02;7.72;;;;;;;20.36;39.94;102629.97;5102066;28;20040;-66
2021/03/28 10:34:20;;;;;;;25.98;12.90;;;;;;;20.63;40.48;102619.38;5084956;28;20165;-66
2021/03/28 10:37:01;;;;;;;14.85;7.85;;;;;;;21.01;40.06;102613.19;5076198;28;20033;-67
2021/03/28 10:39:55;;;;;;;7.45;5.10;;;;;;;21.40;39.56;102613.28;5083644;28;20035;-67
2021/03/28 10:42:40;;;;;;;10.52;6.75;;;;;;;21.41;38.82;102608.81;5085651;28;20439;-67
2021/03/28 10:45:26;;;;;;;10.55;5.22;;;;;;;20.60;39.46;102615.78;5088646;28;20040;-67
2021/03/28 10:48:29;;;;;;;10.85;5.50;;;;;;;20.44;39.77;102600.50;5079169;28;20049;-68
2021/03/28 10:51:26;;;;;;;10.48;5.60;;;;;;;20.62;40.10;102604.13;5073351;28;20062;-68
2021/03/28 10:54:25;;;;;;;9.30;5.72;;;;;;;20.64;40.30;102605.06;5076373;28;20048;-67
2021/03/28 10:57:33;;;;;;;69.28;52.22;;;;;;;20.82;39.95;102612.25;5048154;28;20028;-66
2021/03/28 11:00:52;;;;;;;29.40;18.65;;;;;;;20.95;39.77;102610.50;5073013;28;20035;-65
2021/03/28 11:03:57;;;;;;;14.48;6.78;;;;;;;20.76;39.34;102605.97;5082162;28;20036;-66
2021/03/28 11:06:50;;;;;;;48.97;25.88;;;;;;;20.92;39.63;102610.50;5059429;28;20041;-67
2021/03/28 11:09:36;;;;;;;129.63;67.35;;;;;;;21.30;39.57;102600.75;5088247;28;20066;-67
2021/03/28 11:12:20;;;;;;;16.70;8.38;;;;;;;21.26;39.35;102593.59;5090848;28;20061;-67
2021/03/28 11:15:11;;;;;;;36.25;19.35;;;;;;;21.28;39.26;102591.78;5082688;28;20036;-66
2021/03/28 11:18:10;;;;;;;9.07;5.13;;;;;;;21.40;38.42;102581.03;5091459;28;20039;-66
2021/03/28 11:20:52;;;;;;;84.15;38.55;;;;;;;21.40;39.36;102586.41;5059717;28;20040;-66
2021/03/28 11:23:46;;;;;;;272.55;189.80;;;;;;;21.52;39.41;102580.16;5084460;28;20136;-66
2021/03/28 11:26:55;;;;;;;180.52;98.45;;;;;;;21.13;39.15;102581.03;5080309;28;20120;-67
2021/03/28 11:29:49;;;;;;;165.90;87.10;;;;;;;20.92;39.77;102573.81;5081340;28;20058;-67
2021/03/28 11:32:28;;;;;;;60.75;37.38;;;;;;;21.22;40.03;102574.78;5087682;28;20112;-67
2021/03/28 11:35:18;;;;;;;95.63;61.72;;;;;;;21.30;39.69;102568.53;5079848;28;20182;-67
2021/03/28 11:37:50;;;;;;;32.58;22.80;;;;;;;21.59;39.51;102554.19;5091435;28;20047;-67
2021/03/28 11:40:37;;;;;;;29.23;20.05;;;;;;;21.18;39.17;102559.56;5092789;28;20115;-66
2021/03/28 11:43:32;;;;;;;15.63;11.27;;;;;;;20.98;39.30;102565.78;5084468;28;20044;-66
2021/03/28 11:46:31;;;;;;;21.02;13.88;;;;;;;21.43;38.79;102564.94;5090880;28;20028;-67
2021/03/28 11:49:12;;;;;;;21.17;14.02;;;;;;;21.74;38.49;102552.34;5001605;28;20046;-66
2021/03/28 11:52:21;;;;;;;18.65;13.10;;;;;;;22.03;37.91;102556.81;5072876;28;20442;-66
2021/03/28 11:55:13;;;;;;;56.83;37.25;;;;;;;22.31;37.56;102550.44;5052752;28;20047;-67
2021/03/28 11:57:42;;;;;;;24.00;14.50;;;;;;;21.58;38.68;102545.22;5090963;28;20209;-67
2021/03/28 12:00:24;;;;;;;30.00;21.50;;;;;;;21.33;38.58;102532.69;5088951;28;20044;-67
2021/03/28 12:03:15;;;;;;;23.63;16.80;;;;;;;21.23;39.19;102541.63;5081220;28;20047;-67
2021/03/28 12:05:55;;;;;;;7.60;4.57;;;;;;;21.56;39.09;102540.72;5089378;28;20047;-68
2021/03/28 12:08:25;;;;;;;5.90;3.53;;;;;;;21.53;38.97;102535.38;5073447;28;20719;-69
2021/03/28 12:10:56;;;;;;;8.88;5.72;;;;;;;21.54;39.19;102532.66;5088680;28;20048;-68
2021/03/28 12:13:32;;;;;;;6.95;3.25;;;;;;;21.65;38.40;102524.59;5073965;28;20028;-67
2021/03/28 12:16:07;;;;;;;4.32;2.65;;;;;;;21.51;38.48;102532.69;5070855;28;20584;-66
2021/03/28 12:19:00;;;;;;;7.15;4.13;;;;;;;21.51;39.07;102531.78;5071650;28;20036;-66
2021/03/28 12:21:59;;;;;;;6.43;3.85;;;;;;;22.09;37.95;102527.19;5064034;28;20040;-66
2021/03/28 12:24:30;;;;;;;9.52;4.15;;;;;;;22.40;37.62;102520.75;5070967;28;20466;-67
2021/03/28 12:27:22;;;;;;;4.78;3.20;;;;;;;22.12;37.20;102536.13;5089962;28;20066;-66
2021/03/28 12:29:50;;;;;;;6.57;3.75;;;;;;;22.01;37.91;102529.91;5094394;27;20044;-66
2021/03/28 12:32:56;;;;;;;3.85;2.50;;;;;;;22.05;37.56;102525.41;5088971;28;20518;-66
2021/03/28 12:35:43;;;;;;;6.97;3.88;;;;;;;21.99;37.76;102529.00;5089047;28;20587;-66
2021/03/28 12:38:51;;;;;;;7.85;3.55;;;;;;;22.57;37.68;102531.47;5078084;28;20141;-67
2021/03/28 12:41:32;;;;;;;6.03;3.03;;;;;;;22.95;36.83;102534.84;5097898;28;20036;-66
2021/03/28 12:44:27;;;;;;;6.40;3.10;;;;;;;23.23;36.57;102534.63;5110549;27;20527;-66
2021/03/28 12:47:01;;;;;;;7.90;3.38;;;;;;;23.37;36.51;102524.59;5111688;28;20032;-67
2021/03/28 12:49:32;;;;;;;22.17;7.60;;;;;;;22.96;36.94;102524.97;5101731;28;20048;-67
2021/03/28 12:52:24;;;;;;;4.50;2.80;;;;;;;22.68;36.60;102508.03;5091642;28;20095;-66
2021/03/28 12:55:14;;;;;;;11.77;6.22;;;;;;;22.89;36.60;102518.72;5091565;28;20040;-67
2021/03/28 12:57:45;;;;;;;6.38;3.10;;;;;;;23.30;36.12;102509.41;5106522;28;20058;-67
2021/03/28 13:00:37;;;;;;;5.65;3.75;;;;;;;23.13;35.97;102509.53;5071581;28;20043;-67
2021/03/28 13:03:14;;;;;;;7.65;4.88;;;;;;;22.67;36.26;102506.25;5071051;28;20033;-68
2021/03/28 13:06:14;;;;;;;4.70;2.95;;;;;;;22.78;36.67;102504.41;5070799;28;20074;-67